sensor_id;sensor_type;location;lat;lon;timestamp;P1;durP1;ratioP1;P2;durP2;ratioP2
63394;SDS011;49531;-34.520;150.798;2022-10-17T00:00:24;5.75;;;1.50;;
63394;SDS011;49531;-34.520;150.798;2022-10-17T00:02:53;4.97;;;1.30;;
63394;SDS011;49531;-34.520;150.798;2022-10-17T00:05:21;2.38;;;1.20;;
63394;SDS011;49531;-34.520;150.798;2022-10-17T00:07:50;8.80;;;1.58;;
63394;SDS011;49531;-34.520;150.798;2022-10-17T00:10:18;4.85;;;1.27;;
63394;SDS011;49531;-34.520;150.798;2022-10-17T00:12:46;7.22;;;1.30;;
63394;SDS011;49531;-34.520;150.798;2022-10-17T00:15:14;6.93;;;1.42;;
63394;SDS011;49531;-34.520;150.798;2022-10-17T00:17:43;7.28;;;1.27;;
63394;SDS011;49531;-34.520;150.798;2022-10-17T00:20:10;8.05;;;1.13;;
63394;SDS011;49531;-34.520;150.798;2022-10-17T00:22:37;5.22;;;1.10;;
63394;SDS011;49531;-34.520;150.798;2022-10-17T00:25:05;4.85;;;1.20;;
63394;SDS011;49531;-34.520;150.798;2022-10-17T00:27:34;7.97;;;1.50;;
63394;SDS011;49531;-34.520;150.798;2022-10-17T00:30:02;6.65;;;1.27;;
63394;SDS011;49531;-34.520;150.798;2022-10-17T00:32:30;5.88;;;1.20;;
63394;SDS011;49531;-34.520;150.798;2022-10-17T00:34:57;9.00;;;1.52;;
63394;SDS011;49531;-34.520;150.798;2022-10-17T00:37:24;21.42;;;1.45;;
63394;SDS011;49531;-34.520;150.798;2022-10-17T00:39:52;3.42;;;1.10;;
63394;SDS011;49531;-34.520;150.798;2022-10-17T00:42:19;7.75;;;1.30;;
63394;SDS011;49531;-34.520;150.798;2022-10-17T00:44:58;5.28;;;1.45;;
63394;SDS011;49531;-34.520;150.798;2022-10-17T00:47:32;4.60;;;1.20;;
63394;SDS011;49531;-34.520;150.798;2022-10-17T00:50:02;7.95;;;1.30;;
63394;SDS011;49531;-34.520;150.798;2022-10-17T00:52:31;9.20;;;1.65;;
63394;SDS011;49531;-34.520;150.798;2022-10-17T00:55:03;4.82;;;1.23;;
63394;SDS011;49531;-34.520;150.798;2022-10-17T00:57:36;5.55;;;1.17;;
63394;SDS011;49531;-34.520;150.798;2022-10-17T01:00:06;8.90;;;1.42;;
63394;SDS011;49531;-34.520;150.798;2022-10-17T01:02:35;6.38;;;1.50;;
63394;SDS011;49531;-34.520;150.798;2022-10-17T01:05:02;5.78;;;1.13;;
63394;SDS011;49531;-34.520;150.798;2022-10-17T01:07:31;6.93;;;1.40;;
63394;SDS011;49531;-34.520;150.798;2022-10-17T01:09:59;7.05;;;1.10;;
63394;SDS011;49531;-34.520;150.798;2022-10-17T01:12:28;5.45;;;1.20;;
63394;SDS011;49531;-34.520;150.798;2022-10-17T01:18:17;5.72;;;1.20;;
63394;SDS011;49531;-34.520;150.798;2022-10-17T01:24:04;4.70;;;1.17;;
63394;SDS011;49531;-34.520;150.798;2022-10-17T01:26:58;7.45;;;1.40;;
63394;SDS011;49531;-34.520;150.798;2022-10-17T01:29:59;13.10;;;1.38;;
63394;SDS011;49531;-34.520;150.798;2022-10-17T01:32:45;8.00;;;1.10;;
63394;SDS011;49531;-34.520;150.798;2022-10-17T01:35:28;13.10;;;1.60;;
63394;SDS011;49531;-34.520;150.798;2022-10-17T01:38:09;11.77;;;1.45;;
63394;SDS011;49531;-34.520;150.798;2022-10-17T01:40:47;5.32;;;1.40;;
63394;SDS011;49531;-34.520;150.798;2022-10-17T01:43:21;7.55;;;1.20;;
63394;SDS011;49531;-34.520;150.798;2022-10-17T01:45:58;4.72;;;1.25;;
63394;SDS011;49531;-34.520;150.798;2022-10-17T01:48:36;5.38;;;1.20;;
63394;SDS011;49531;-34.520;150.798;2022-10-17T01:51:09;8.27;;;1.23;;
63394;SDS011;49531;-34.520;150.798;2022-10-17T01:53:49;9.40;;;1.20;;
63394;SDS011;49531;-34.520;150.798;2022-10-17T01:56:20;18.73;;;1.73;;
63394;SDS011;49531;-34.520;150.798;2022-10-17T01:58:54;44.53;;;2.30;;
63394;SDS011;49531;-34.520;150.798;2022-10-17T02:01:25;18.98;;;1.70;;
63394;SDS011;49531;-34.520;150.798;2022-10-17T02:03:56;17.77;;;1.58;;
63394;SDS011;49531;-34.520;150.798;2022-10-17T02:06:25;24.52;;;1.60;;
63394;SDS011;49531;-34.520;150.798;2022-10-17T02:08:52;17.48;;;1.67;;
63394;SDS011;49531;-34.520;150.798;2022-10-17T02:11:21;23.02;;;1.70;;
63394;SDS011;49531;-34.520;150.798;2022-10-17T02:14:01;25.42;;;2.15;;
63394;SDS011;49531;-34.520;150.798;2022-10-17T02:16:54;17.60;;;1.92;;
63394;SDS011;49531;-34.520;150.798;2022-10-17T02:19:37;28.42;;;2.45;;
63394;SDS011;49531;-34.520;150.798;2022-10-17T02:22:26;202.57;;;9.88;;
63394;SDS011;49531;-34.520;150.798;2022-10-17T02:25:11;169.68;;;7.78;;
63394;SDS011;49531;-34.520;150.798;2022-10-17T02:28:05;76.57;;;5.28;;
63394;SDS011;49531;-34.520;150.798;2022-10-17T02:30:49;36.65;;;2.67;;
63394;SDS011;49531;-34.520;150.798;2022-10-17T02:33:22;26.83;;;2.60;;
63394;SDS011;49531;-34.520;150.798;2022-10-17T02:35:56;43.55;;;2.33;;
63394;SDS011;49531;-34.520;150.798;2022-10-17T02:38:26;12.85;;;1.63;;
63394;SDS011;49531;-34.520;150.798;2022-10-17T02:40:55;7.53;;;1.38;;
63394;SDS011;49531;-34.520;150.798;2022-10-17T02:43:23;13.40;;;1.38;;
63394;SDS011;49531;-34.520;150.798;2022-10-17T02:45:51;87.35;;;3.67;;
63394;SDS011;49531;-34.520;150.798;2022-10-17T02:51:07;19.20;;;1.55;;
63394;SDS011;49531;-34.520;150.798;2022-10-17T02:53:53;15.40;;;1.40;;
63394;SDS011;49531;-34.520;150.798;2022-10-17T02:56:33;8.45;;;1.50;;
63394;SDS011;49531;-34.520;150.798;2022-10-17T02:59:08;8.77;;;1.55;;
63394;SDS011;49531;-34.520;150.798;2022-10-17T03:01:39;10.68;;;1.30;;
63394;SDS011;49531;-34.520;150.798;2022-10-17T03:04:08;5.32;;;1.20;;
63394;SDS011;49531;-34.520;150.798;2022-10-17T03:06:37;6.75;;;1.30;;
63394;SDS011;49531;-34.520;150.798;2022-10-17T03:09:06;6.45;;;1.30;;
63394;SDS011;49531;-34.520;150.798;2022-10-17T03:11:33;4.30;;;1.13;;
63394;SDS011;49531;-34.520;150.798;2022-10-17T03:14:01;5.35;;;1.33;;
63394;SDS011;49531;-34.520;150.798;2022-10-17T03:16:28;6.47;;;1.40;;
63394;SDS011;49531;-34.520;150.798;2022-10-17T03:18:56;7.15;;;1.48;;
63394;SDS011;49531;-34.520;150.798;2022-10-17T03:21:23;4.63;;;1.48;;
63394;SDS011;49531;-34.520;150.798;2022-10-17T03:23:50;5.90;;;1.33;;
63394;SDS011;49531;-34.520;150.798;2022-10-17T03:26:17;4.57;;;1.30;;
63394;SDS011;49531;-34.520;150.798;2022-10-17T03:28:44;8.30;;;1.20;;
63394;SDS011;49531;-34.520;150.798;2022-10-17T03:31:12;6.18;;;1.27;;
63394;SDS011;49531;-34.520;150.798;2022-10-17T03:33:40;4.28;;;1.00;;
63394;SDS011;49531;-34.520;150.798;2022-10-17T03:36:08;4.68;;;1.10;;
63394;SDS011;49531;-34.520;150.798;2022-10-17T03:38:37;5.72;;;1.30;;
63394;SDS011;49531;-34.520;150.798;2022-10-17T03:41:05;7.80;;;1.30;;
63394;SDS011;49531;-34.520;150.798;2022-10-17T03:43:33;8.32;;;1.30;;
63394;SDS011;49531;-34.520;150.798;2022-10-17T03:46:00;5.07;;;1.30;;
63394;SDS011;49531;-34.520;150.798;2022-10-17T03:48:28;2.95;;;1.00;;
63394;SDS011;49531;-34.520;150.798;2022-10-17T03:50:58;6.65;;;1.50;;
63394;SDS011;49531;-34.520;150.798;2022-10-17T03:55:56;2.40;;;1.08;;
63394;SDS011;49531;-34.520;150.798;2022-10-17T03:58:34;6.55;;;1.27;;
63394;SDS011;49531;-34.520;150.798;2022-10-17T04:01:04;3.78;;;1.00;;
63394;SDS011;49531;-34.520;150.798;2022-10-17T04:03:32;5.45;;;1.20;;
63394;SDS011;49531;-34.520;150.798;2022-10-17T04:05:59;3.47;;;1.00;;
63394;SDS011;49531;-34.520;150.798;2022-10-17T04:08:28;6.03;;;1.25;;
63394;SDS011;49531;-34.520;150.798;2022-10-17T04:10:57;6.25;;;1.23;;
63394;SDS011;49531;-34.520;150.798;2022-10-17T04:13:26;4.15;;;1.02;;
63394;SDS011;49531;-34.520;150.798;2022-10-17T04:15:54;3.53;;;0.98;;
63394;SDS011;49531;-34.520;150.798;2022-10-17T04:18:24;2.42;;;0.98;;
63394;SDS011;49531;-34.520;150.798;2022-10-17T04:20:51;5.75;;;1.10;;
63394;SDS011;49531;-34.520;150.798;2022-10-17T04:23:19;4.53;;;1.30;;
63394;SDS011;49531;-34.520;150.798;2022-10-17T04:25:46;5.22;;;1.20;;
63394;SDS011;49531;-34.520;150.798;2022-10-17T04:28:13;5.70;;;1.13;;
63394;SDS011;49531;-34.520;150.798;2022-10-17T04:30:40;2.95;;;1.15;;
63394;SDS011;49531;-34.520;150.798;2022-10-17T04:33:07;3.88;;;1.23;;
63394;SDS011;49531;-34.520;150.798;2022-10-17T04:35:34;6.47;;;1.15;;
63394;SDS011;49531;-34.520;150.798;2022-10-17T04:38:01;6.40;;;1.08;;
63394;SDS011;49531;-34.520;150.798;2022-10-17T04:40:28;3.95;;;1.20;;
63394;SDS011;49531;-34.520;150.798;2022-10-17T04:42:55;3.90;;;1.17;;
63394;SDS011;49531;-34.520;150.798;2022-10-17T04:45:23;3.03;;;0.90;;
63394;SDS011;49531;-34.520;150.798;2022-10-17T04:47:50;3.30;;;1.00;;
63394;SDS011;49531;-34.520;150.798;2022-10-17T04:50:17;6.72;;;1.48;;
63394;SDS011;49531;-34.520;150.798;2022-10-17T04:52:44;5.75;;;1.10;;
63394;SDS011;49531;-34.520;150.798;2022-10-17T04:55:12;4.05;;;1.42;;
63394;SDS011;49531;-34.520;150.798;2022-10-17T04:57:39;4.82;;;1.33;;
63394;SDS011;49531;-34.520;150.798;2022-10-17T05:00:06;3.58;;;1.20;;
63394;SDS011;49531;-34.520;150.798;2022-10-17T05:02:34;3.72;;;1.20;;
63394;SDS011;49531;-34.520;150.798;2022-10-17T05:05:01;4.53;;;1.23;;
63394;SDS011;49531;-34.520;150.798;2022-10-17T05:07:28;3.30;;;1.20;;
63394;SDS011;49531;-34.520;150.798;2022-10-17T05:09:55;4.95;;;1.30;;
63394;SDS011;49531;-34.520;150.798;2022-10-17T05:12:23;3.08;;;1.05;;
63394;SDS011;49531;-34.520;150.798;2022-10-17T05:14:51;3.45;;;1.20;;
63394;SDS011;49531;-34.520;150.798;2022-10-17T05:17:18;3.35;;;1.20;;
63394;SDS011;49531;-34.520;150.798;2022-10-17T05:19:45;3.80;;;1.23;;
63394;SDS011;49531;-34.520;150.798;2022-10-17T05:22:12;5.00;;;1.17;;
63394;SDS011;49531;-34.520;150.798;2022-10-17T05:24:39;3.53;;;1.17;;
63394;SDS011;49531;-34.520;150.798;2022-10-17T05:27:06;4.15;;;1.27;;
63394;SDS011;49531;-34.520;150.798;2022-10-17T05:29:33;5.80;;;1.30;;
63394;SDS011;49531;-34.520;150.798;2022-10-17T05:32:00;4.65;;;1.17;;
63394;SDS011;49531;-34.520;150.798;2022-10-17T05:34:28;5.75;;;1.30;;
63394;SDS011;49531;-34.520;150.798;2022-10-17T05:36:55;6.88;;;1.35;;
63394;SDS011;49531;-34.520;150.798;2022-10-17T05:39:23;8.80;;;1.30;;
63394;SDS011;49531;-34.520;150.798;2022-10-17T05:41:50;5.15;;;1.38;;
63394;SDS011;49531;-34.520;150.798;2022-10-17T05:44:17;6.35;;;1.38;;
63394;SDS011;49531;-34.520;150.798;2022-10-17T05:46:44;4.72;;;1.40;;
63394;SDS011;49531;-34.520;150.798;2022-10-17T05:49:14;5.20;;;1.30;;
63394;SDS011;49531;-34.520;150.798;2022-10-17T05:51:42;10.50;;;1.35;;
63394;SDS011;49531;-34.520;150.798;2022-10-17T05:54:09;6.63;;;1.20;;
63394;SDS011;49531;-34.520;150.798;2022-10-17T05:56:37;3.97;;;1.40;;
63394;SDS011;49531;-34.520;150.798;2022-10-17T05:59:04;5.32;;;1.20;;
63394;SDS011;49531;-34.520;150.798;2022-10-17T06:01:31;5.38;;;1.60;;
63394;SDS011;49531;-34.520;150.798;2022-10-17T06:03:58;3.63;;;1.50;;
63394;SDS011;49531;-34.520;150.798;2022-10-17T06:06:25;2.95;;;1.42;;
63394;SDS011;49531;-34.520;150.798;2022-10-17T06:08:52;5.18;;;1.80;;
63394;SDS011;49531;-34.520;150.798;2022-10-17T06:11:19;7.00;;;2.20;;
63394;SDS011;49531;-34.520;150.798;2022-10-17T06:13:46;7.53;;;2.30;;
63394;SDS011;49531;-34.520;150.798;2022-10-17T06:16:13;10.75;;;2.35;;
63394;SDS011;49531;-34.520;150.798;2022-10-17T06:18:40;8.30;;;2.67;;
63394;SDS011;49531;-34.520;150.798;2022-10-17T06:21:08;9.80;;;3.03;;
63394;SDS011;49531;-34.520;150.798;2022-10-17T06:23:36;9.75;;;2.40;;
63394;SDS011;49531;-34.520;150.798;2022-10-17T06:26:04;8.68;;;2.55;;
63394;SDS011;49531;-34.520;150.798;2022-10-17T06:28:32;10.07;;;2.60;;
63394;SDS011;49531;-34.520;150.798;2022-10-17T06:31:05;10.10;;;2.70;;
63394;SDS011;49531;-34.520;150.798;2022-10-17T06:33:34;10.23;;;2.72;;
63394;SDS011;49531;-34.520;150.798;2022-10-17T06:36:02;8.70;;;2.60;;
63394;SDS011;49531;-34.520;150.798;2022-10-17T06:38:31;8.70;;;2.70;;
63394;SDS011;49531;-34.520;150.798;2022-10-17T06:41:14;9.93;;;2.70;;
63394;SDS011;49531;-34.520;150.798;2022-10-17T06:43:44;8.68;;;2.40;;
63394;SDS011;49531;-34.520;150.798;2022-10-17T06:46:13;8.73;;;2.55;;
63394;SDS011;49531;-34.520;150.798;2022-10-17T06:48:41;7.70;;;2.30;;
63394;SDS011;49531;-34.520;150.798;2022-10-17T06:51:09;9.27;;;2.67;;
63394;SDS011;49531;-34.520;150.798;2022-10-17T06:53:38;7.70;;;2.42;;
63394;SDS011;49531;-34.520;150.798;2022-10-17T06:56:06;8.63;;;2.30;;
63394;SDS011;49531;-34.520;150.798;2022-10-17T06:58:36;8.75;;;2.50;;
63394;SDS011;49531;-34.520;150.798;2022-10-17T07:01:05;7.70;;;2.22;;
63394;SDS011;49531;-34.520;150.798;2022-10-17T07:03:34;6.45;;;2.42;;
63394;SDS011;49531;-34.520;150.798;2022-10-17T07:06:01;6.80;;;2.00;;
63394;SDS011;49531;-34.520;150.798;2022-10-17T07:08:29;7.97;;;2.50;;
63394;SDS011;49531;-34.520;150.798;2022-10-17T07:10:56;6.03;;;2.17;;
63394;SDS011;49531;-34.520;150.798;2022-10-17T07:13:24;8.00;;;2.00;;
63394;SDS011;49531;-34.520;150.798;2022-10-17T07:15:51;6.50;;;2.22;;
63394;SDS011;49531;-34.520;150.798;2022-10-17T07:18:21;8.70;;;2.00;;
63394;SDS011;49531;-34.520;150.798;2022-10-17T07:20:52;6.20;;;1.83;;
63394;SDS011;49531;-34.520;150.798;2022-10-17T07:23:20;5.75;;;1.98;;
63394;SDS011;49531;-34.520;150.798;2022-10-17T07:25:48;5.35;;;1.75;;
63394;SDS011;49531;-34.520;150.798;2022-10-17T07:28:15;4.65;;;1.73;;
63394;SDS011;49531;-34.520;150.798;2022-10-17T07:30:43;5.20;;;1.77;;
63394;SDS011;49531;-34.520;150.798;2022-10-17T07:33:10;4.75;;;1.80;;
63394;SDS011;49531;-34.520;150.798;2022-10-17T07:35:37;5.45;;;1.80;;
63394;SDS011;49531;-34.520;150.798;2022-10-17T07:38:06;4.53;;;1.55;;
63394;SDS011;49531;-34.520;150.798;2022-10-17T07:40:33;6.35;;;1.88;;
63394;SDS011;49531;-34.520;150.798;2022-10-17T07:43:00;6.88;;;1.85;;
63394;SDS011;49531;-34.520;150.798;2022-10-17T07:45:27;6.63;;;1.80;;
63394;SDS011;49531;-34.520;150.798;2022-10-17T07:47:55;4.13;;;1.52;;
63394;SDS011;49531;-34.520;150.798;2022-10-17T07:50:23;5.68;;;1.85;;
63394;SDS011;49531;-34.520;150.798;2022-10-17T07:52:50;5.93;;;1.63;;
63394;SDS011;49531;-34.520;150.798;2022-10-17T07:55:17;3.72;;;1.60;;
63394;SDS011;49531;-34.520;150.798;2022-10-17T07:57:45;5.75;;;1.70;;
63394;SDS011;49531;-34.520;150.798;2022-10-17T08:00:12;4.22;;;1.73;;
63394;SDS011;49531;-34.520;150.798;2022-10-17T08:02:39;4.18;;;1.65;;
63394;SDS011;49531;-34.520;150.798;2022-10-17T08:05:07;6.15;;;1.70;;
63394;SDS011;49531;-34.520;150.798;2022-10-17T08:07:34;4.97;;;1.80;;
63394;SDS011;49531;-34.520;150.798;2022-10-17T08:10:01;3.78;;;1.63;;
63394;SDS011;49531;-34.520;150.798;2022-10-17T08:12:28;3.92;;;1.50;;
63394;SDS011;49531;-34.520;150.798;2022-10-17T08:14:59;5.45;;;1.40;;
63394;SDS011;49531;-34.520;150.798;2022-10-17T08:17:26;4.40;;;1.48;;
63394;SDS011;49531;-34.520;150.798;2022-10-17T08:19:53;2.83;;;1.10;;
63394;SDS011;49531;-34.520;150.798;2022-10-17T08:22:20;7.28;;;1.67;;
63394;SDS011;49531;-34.520;150.798;2022-10-17T08:24:47;5.22;;;1.73;;
63394;SDS011;49531;-34.520;150.798;2022-10-17T08:27:14;4.65;;;1.40;;
63394;SDS011;49531;-34.520;150.798;2022-10-17T08:29:48;5.00;;;1.55;;
63394;SDS011;49531;-34.520;150.798;2022-10-17T08:32:18;3.33;;;1.40;;
63394;SDS011;49531;-34.520;150.798;2022-10-17T08:34:46;4.03;;;1.40;;
63394;SDS011;49531;-34.520;150.798;2022-10-17T08:37:13;4.45;;;1.40;;
63394;SDS011;49531;-34.520;150.798;2022-10-17T08:39:41;8.35;;;1.45;;
63394;SDS011;49531;-34.520;150.798;2022-10-17T08:42:29;4.78;;;1.55;;
63394;SDS011;49531;-34.520;150.798;2022-10-17T08:45:15;5.32;;;1.60;;
63394;SDS011;49531;-34.520;150.798;2022-10-17T08:47:51;4.75;;;1.30;;
63394;SDS011;49531;-34.520;150.798;2022-10-17T08:50:29;4.63;;;1.42;;
63394;SDS011;49531;-34.520;150.798;2022-10-17T08:53:15;3.90;;;1.45;;
63394;SDS011;49531;-34.520;150.798;2022-10-17T08:55:47;3.40;;;1.25;;
63394;SDS011;49531;-34.520;150.798;2022-10-17T08:58:21;2.75;;;1.30;;
63394;SDS011;49531;-34.520;150.798;2022-10-17T09:00:56;5.28;;;1.50;;
63394;SDS011;49531;-34.520;150.798;2022-10-17T09:03:55;3.95;;;1.25;;
63394;SDS011;49531;-34.520;150.798;2022-10-17T09:06:38;3.60;;;1.35;;
63394;SDS011;49531;-34.520;150.798;2022-10-17T09:09:35;3.40;;;1.30;;
63394;SDS011;49531;-34.520;150.798;2022-10-17T09:12:15;3.67;;;1.20;;
63394;SDS011;49531;-34.520;150.798;2022-10-17T09:14:59;2.78;;;1.20;;
63394;SDS011;49531;-34.520;150.798;2022-10-17T09:20:24;3.13;;;1.30;;
63394;SDS011;49531;-34.520;150.798;2022-10-17T09:22:57;3.33;;;1.30;;
63394;SDS011;49531;-34.520;150.798;2022-10-17T09:25:27;2.92;;;1.20;;
63394;SDS011;49531;-34.520;150.798;2022-10-17T09:28:03;2.40;;;1.20;;
63394;SDS011;49531;-34.520;150.798;2022-10-17T09:30:46;2.33;;;1.20;;
63394;SDS011;49531;-34.520;150.798;2022-10-17T09:33:20;2.45;;;1.10;;
63394;SDS011;49531;-34.520;150.798;2022-10-17T09:35:53;2.78;;;1.20;;
63394;SDS011;49531;-34.520;150.798;2022-10-17T09:38:24;2.35;;;1.20;;
63394;SDS011;49531;-34.520;150.798;2022-10-17T09:40:57;3.65;;;1.20;;
63394;SDS011;49531;-34.520;150.798;2022-10-17T09:43:26;2.83;;;1.20;;
63394;SDS011;49531;-34.520;150.798;2022-10-17T09:45:58;2.65;;;1.13;;
63394;SDS011;49531;-34.520;150.798;2022-10-17T09:48:37;3.72;;;1.15;;
63394;SDS011;49531;-34.520;150.798;2022-10-17T09:51:11;2.20;;;1.23;;
63394;SDS011;49531;-34.520;150.798;2022-10-17T09:53:40;2.45;;;1.30;;
63394;SDS011;49531;-34.520;150.798;2022-10-17T09:56:13;3.03;;;1.13;;
63394;SDS011;49531;-34.520;150.798;2022-10-17T09:58:44;3.33;;;1.00;;
63394;SDS011;49531;-34.520;150.798;2022-10-17T10:01:16;2.42;;;1.10;;
63394;SDS011;49531;-34.520;150.798;2022-10-17T10:03:45;3.58;;;1.02;;
63394;SDS011;49531;-34.520;150.798;2022-10-17T10:06:16;4.80;;;1.30;;
63394;SDS011;49531;-34.520;150.798;2022-10-17T10:08:49;4.15;;;1.20;;
63394;SDS011;49531;-34.520;150.798;2022-10-17T10:11:24;2.80;;;1.08;;
63394;SDS011;49531;-34.520;150.798;2022-10-17T10:14:11;1.92;;;1.13;;
63394;SDS011;49531;-34.520;150.798;2022-10-17T10:16:46;3.10;;;1.20;;
63394;SDS011;49531;-34.520;150.798;2022-10-17T10:19:19;2.90;;;1.10;;
63394;SDS011;49531;-34.520;150.798;2022-10-17T10:21:56;3.90;;;1.50;;
63394;SDS011;49531;-34.520;150.798;2022-10-17T10:24:28;1.60;;;1.10;;
63394;SDS011;49531;-34.520;150.798;2022-10-17T10:26:56;1.63;;;1.15;;
63394;SDS011;49531;-34.520;150.798;2022-10-17T10:29:31;3.60;;;1.23;;
63394;SDS011;49531;-34.520;150.798;2022-10-17T10:32:18;3.15;;;1.10;;
63394;SDS011;49531;-34.520;150.798;2022-10-17T10:34:51;2.05;;;1.15;;
63394;SDS011;49531;-34.520;150.798;2022-10-17T10:37:23;2.08;;;1.10;;
63394;SDS011;49531;-34.520;150.798;2022-10-17T10:39:58;2.42;;;1.00;;
63394;SDS011;49531;-34.520;150.798;2022-10-17T10:42:35;2.65;;;1.10;;
63394;SDS011;49531;-34.520;150.798;2022-10-17T10:45:15;2.33;;;1.00;;
63394;SDS011;49531;-34.520;150.798;2022-10-17T10:47:49;2.25;;;1.00;;
63394;SDS011;49531;-34.520;150.798;2022-10-17T10:50:24;2.38;;;1.02;;
63394;SDS011;49531;-34.520;150.798;2022-10-17T10:55:57;2.80;;;1.20;;
63394;SDS011;49531;-34.520;150.798;2022-10-17T10:58:37;5.13;;;1.20;;
63394;SDS011;49531;-34.520;150.798;2022-10-17T11:01:27;2.20;;;1.10;;
63394;SDS011;49531;-34.520;150.798;2022-10-17T11:04:16;5.60;;;1.40;;
63394;SDS011;49531;-34.520;150.798;2022-10-17T11:06:51;3.83;;;1.30;;
63394;SDS011;49531;-34.520;150.798;2022-10-17T11:09:32;3.53;;;1.27;;
63394;SDS011;49531;-34.520;150.798;2022-10-17T11:12:17;4.00;;;1.13;;
63394;SDS011;49531;-34.520;150.798;2022-10-17T11:15:01;2.15;;;1.13;;
63394;SDS011;49531;-34.520;150.798;2022-10-17T11:17:42;3.47;;;1.20;;
63394;SDS011;49531;-34.520;150.798;2022-10-17T11:20:26;3.38;;;1.27;;
63394;SDS011;49531;-34.520;150.798;2022-10-17T11:23:18;3.15;;;1.20;;
63394;SDS011;49531;-34.520;150.798;2022-10-17T11:26:04;2.50;;;1.20;;
63394;SDS011;49531;-34.520;150.798;2022-10-17T11:28:36;4.10;;;1.17;;
63394;SDS011;49531;-34.520;150.798;2022-10-17T11:31:06;3.20;;;1.20;;
63394;SDS011;49531;-34.520;150.798;2022-10-17T11:33:44;4.30;;;1.40;;
63394;SDS011;49531;-34.520;150.798;2022-10-17T11:36:15;2.50;;;1.30;;
63394;SDS011;49531;-34.520;150.798;2022-10-17T11:38:48;2.53;;;1.10;;
63394;SDS011;49531;-34.520;150.798;2022-10-17T11:41:22;3.13;;;1.10;;
63394;SDS011;49531;-34.520;150.798;2022-10-17T11:44:03;3.42;;;1.27;;
63394;SDS011;49531;-34.520;150.798;2022-10-17T11:46:42;2.30;;;1.13;;
63394;SDS011;49531;-34.520;150.798;2022-10-17T11:49:17;1.92;;;1.10;;
63394;SDS011;49531;-34.520;150.798;2022-10-17T11:54:30;1.50;;;1.00;;
63394;SDS011;49531;-34.520;150.798;2022-10-17T12:00:03;2.60;;;1.20;;
63394;SDS011;49531;-34.520;150.798;2022-10-17T12:02:56;2.08;;;1.13;;
63394;SDS011;49531;-34.520;150.798;2022-10-17T12:05:37;1.90;;;1.00;;
63394;SDS011;49531;-34.520;150.798;2022-10-17T12:08:16;2.15;;;1.10;;
63394;SDS011;49531;-34.520;150.798;2022-10-17T12:13:46;3.10;;;1.20;;
63394;SDS011;49531;-34.520;150.798;2022-10-17T12:16:36;2.30;;;1.00;;
63394;SDS011;49531;-34.520;150.798;2022-10-17T12:19:17;2.40;;;1.17;;
63394;SDS011;49531;-34.520;150.798;2022-10-17T12:21:56;1.63;;;1.00;;
63394;SDS011;49531;-34.520;150.798;2022-10-17T12:24:32;3.13;;;1.00;;
63394;SDS011;49531;-34.520;150.798;2022-10-17T12:29:59;1.75;;;1.00;;
63394;SDS011;49531;-34.520;150.798;2022-10-17T12:32:31;2.67;;;1.10;;
63394;SDS011;49531;-34.520;150.798;2022-10-17T12:34:58;2.30;;;1.23;;
63394;SDS011;49531;-34.520;150.798;2022-10-17T12:37:58;1.80;;;1.00;;
63394;SDS011;49531;-34.520;150.798;2022-10-17T12:46:39;2.08;;;1.10;;
63394;SDS011;49531;-34.520;150.798;2022-10-17T12:49:20;2.20;;;1.00;;
63394;SDS011;49531;-34.520;150.798;2022-10-17T12:52:13;2.40;;;1.13;;
63394;SDS011;49531;-34.520;150.798;2022-10-17T12:54:56;2.33;;;1.10;;
63394;SDS011;49531;-34.520;150.798;2022-10-17T12:57:45;2.08;;;1.13;;
63394;SDS011;49531;-34.520;150.798;2022-10-17T13:03:20;3.58;;;1.02;;
63394;SDS011;49531;-34.520;150.798;2022-10-17T13:05:53;2.97;;;1.00;;
63394;SDS011;49531;-34.520;150.798;2022-10-17T13:08:24;1.48;;;0.93;;
63394;SDS011;49531;-34.520;150.798;2022-10-17T13:10:55;2.22;;;1.00;;
63394;SDS011;49531;-34.520;150.798;2022-10-17T13:18:55;3.08;;;1.10;;
63394;SDS011;49531;-34.520;150.798;2022-10-17T13:21:22;2.67;;;0.93;;
63394;SDS011;49531;-34.520;150.798;2022-10-17T13:23:50;1.92;;;0.90;;
63394;SDS011;49531;-34.520;150.798;2022-10-17T13:26:20;2.03;;;1.10;;
63394;SDS011;49531;-34.520;150.798;2022-10-17T13:29:00;3.92;;;1.10;;
63394;SDS011;49531;-34.520;150.798;2022-10-17T13:31:32;1.38;;;1.00;;
63394;SDS011;49531;-34.520;150.798;2022-10-17T13:34:02;2.53;;;1.00;;
63394;SDS011;49531;-34.520;150.798;2022-10-17T13:36:31;2.42;;;0.90;;
63394;SDS011;49531;-34.520;150.798;2022-10-17T13:39:05;2.00;;;0.90;;
63394;SDS011;49531;-34.520;150.798;2022-10-17T13:41:36;1.85;;;1.00;;
63394;SDS011;49531;-34.520;150.798;2022-10-17T13:44:05;1.38;;;0.88;;
63394;SDS011;49531;-34.520;150.798;2022-10-17T13:46:40;2.53;;;1.00;;
63394;SDS011;49531;-34.520;150.798;2022-10-17T13:49:10;2.72;;;0.95;;
63394;SDS011;49531;-34.520;150.798;2022-10-17T13:51:50;2.45;;;1.10;;
63394;SDS011;49531;-34.520;150.798;2022-10-17T13:54:33;1.88;;;0.90;;
63394;SDS011;49531;-34.520;150.798;2022-10-17T13:57:13;2.03;;;0.90;;
63394;SDS011;49531;-34.520;150.798;2022-10-17T13:59:46;2.38;;;1.00;;
63394;SDS011;49531;-34.520;150.798;2022-10-17T14:02:19;1.65;;;0.90;;
63394;SDS011;49531;-34.520;150.798;2022-10-17T14:05:00;1.58;;;1.02;;
63394;SDS011;49531;-34.520;150.798;2022-10-17T14:07:39;1.55;;;0.93;;
63394;SDS011;49531;-34.520;150.798;2022-10-17T14:10:18;1.35;;;1.13;;
63394;SDS011;49531;-34.520;150.798;2022-10-17T14:12:52;2.38;;;1.05;;
63394;SDS011;49531;-34.520;150.798;2022-10-17T14:15:21;1.60;;;0.90;;
63394;SDS011;49531;-34.520;150.798;2022-10-17T14:17:56;2.15;;;1.02;;
63394;SDS011;49531;-34.520;150.798;2022-10-17T14:20:26;1.77;;;1.00;;
63394;SDS011;49531;-34.520;150.798;2022-10-17T14:22:54;2.78;;;1.02;;
63394;SDS011;49531;-34.520;150.798;2022-10-17T14:25:26;2.33;;;1.10;;
63394;SDS011;49531;-34.520;150.798;2022-10-17T14:27:59;3.20;;;1.30;;
63394;SDS011;49531;-34.520;150.798;2022-10-17T14:30:36;1.83;;;0.90;;
63394;SDS011;49531;-34.520;150.798;2022-10-17T14:33:06;1.92;;;0.88;;
63394;SDS011;49531;-34.520;150.798;2022-10-17T14:35:39;2.30;;;0.95;;
63394;SDS011;49531;-34.520;150.798;2022-10-17T14:38:14;2.55;;;1.00;;
63394;SDS011;49531;-34.520;150.798;2022-10-17T14:40:50;2.38;;;0.90;;
63394;SDS011;49531;-34.520;150.798;2022-10-17T14:43:22;1.42;;;0.80;;
63394;SDS011;49531;-34.520;150.798;2022-10-17T14:45:52;2.25;;;0.90;;
63394;SDS011;49531;-34.520;150.798;2022-10-17T14:48:24;1.50;;;0.90;;
63394;SDS011;49531;-34.520;150.798;2022-10-17T14:51:06;1.80;;;1.10;;
63394;SDS011;49531;-34.520;150.798;2022-10-17T14:53:35;2.63;;;0.98;;
63394;SDS011;49531;-34.520;150.798;2022-10-17T14:56:04;2.30;;;1.08;;
63394;SDS011;49531;-34.520;150.798;2022-10-17T14:58:46;2.22;;;0.95;;
63394;SDS011;49531;-34.520;150.798;2022-10-17T15:01:14;2.30;;;0.93;;
63394;SDS011;49531;-34.520;150.798;2022-10-17T15:03:41;2.17;;;1.10;;
63394;SDS011;49531;-34.520;150.798;2022-10-17T15:06:19;1.58;;;0.80;;
63394;SDS011;49531;-34.520;150.798;2022-10-17T15:08:52;3.30;;;1.10;;
63394;SDS011;49531;-34.520;150.798;2022-10-17T15:11:19;2.80;;;1.25;;
63394;SDS011;49531;-34.520;150.798;2022-10-17T15:13:47;2.20;;;0.90;;
63394;SDS011;49531;-34.520;150.798;2022-10-17T15:16:15;1.90;;;1.10;;
63394;SDS011;49531;-34.520;150.798;2022-10-17T15:18:45;1.52;;;0.82;;
63394;SDS011;49531;-34.520;150.798;2022-10-17T15:21:12;3.22;;;1.10;;